sensor_id;sensor_type;location;lat;lon;timestamp;pressure;altitude;pressure_sealevel;temperature;humidity
58622;BME280;44389;51.578;5.456;2024-01-15T00:01:58;100263.88;;;-0.08;100.00
58622;BME280;44389;51.578;5.456;2024-01-15T00:04:24;100258.72;;;-0.10;100.00
58622;BME280;44389;51.578;5.456;2024-01-15T00:06:49;100245.88;;;-0.13;100.00
58622;BME280;44389;51.578;5.456;2024-01-15T00:09:15;100259.31;;;-0.14;100.00
58622;BME280;44389;51.578;5.456;2024-01-15T00:11:40;100252.31;;;-0.18;100.00
58622;BME280;44389;51.578;5.456;2024-01-15T00:14:06;100252.09;;;-0.21;100.00
58622;BME280;44389;51.578;5.456;2024-01-15T00:16:31;100245.84;;;-0.26;100.00
58622;BME280;44389;51.578;5.456;2024-01-15T00:18:56;100238.25;;;-0.26;100.00
58622;BME280;44389;51.578;5.456;2024-01-15T00:21:22;100239.84;;;-0.28;100.00
58622;BME280;44389;51.578;5.456;2024-01-15T00:23:48;100247.91;;;-0.34;100.00
58622;BME280;44389;51.578;5.456;2024-01-15T00:26:13;100248.31;;;-0.41;100.00
58622;BME280;44389;51.578;5.456;2024-01-15T00:28:39;100234.66;;;-0.43;100.00
58622;BME280;44389;51.578;5.456;2024-01-15T00:31:05;100230.97;;;-0.48;100.00
58622;BME280;44389;51.578;5.456;2024-01-15T00:33:30;100238.47;;;-0.50;100.00
58622;BME280;44389;51.578;5.456;2024-01-15T00:35:55;100236.63;;;-0.53;100.00
58622;BME280;44389;51.578;5.456;2024-01-15T00:38:21;100236.03;;;-0.48;100.00
58622;BME280;44389;51.578;5.456;2024-01-15T00:40:46;100224.81;;;-0.52;100.00
58622;BME280;44389;51.578;5.456;2024-01-15T00:43:11;100220.34;;;-0.56;100.00
58622;BME280;44389;51.578;5.456;2024-01-15T00:45:37;100209.81;;;-0.62;100.00
58622;BME280;44389;51.578;5.456;2024-01-15T00:48:03;100214.78;;;-0.64;100.00
58622;BME280;44389;51.578;5.456;2024-01-15T00:50:29;100218.59;;;-0.71;100.00
58622;BME280;44389;51.578;5.456;2024-01-15T00:52:54;100211.59;;;-0.75;100.00
58622;BME280;44389;51.578;5.456;2024-01-15T00:55:19;100210.59;;;-0.77;100.00
58622;BME280;44389;51.578;5.456;2024-01-15T00:57:45;100201.94;;;-0.80;100.00
58622;BME280;44389;51.578;5.456;2024-01-15T01:00:10;100202.81;;;-0.80;100.00
58622;BME280;44389;51.578;5.456;2024-01-15T01:02:36;100201.94;;;-0.80;100.00
58622;BME280;44389;51.578;5.456;2024-01-15T01:05:02;100208.84;;;-0.78;100.00
58622;BME280;44389;51.578;5.456;2024-01-15T01:07:28;100207.88;;;-0.80;100.00
58622;BME280;44389;51.578;5.456;2024-01-15T01:09:53;100201.25;;;-0.78;100.00
58622;BME280;44389;51.578;5.456;2024-01-15T01:12:19;100200.38;;;-0.78;100.00
58622;BME280;44389;51.578;5.456;2024-01-15T01:14:44;100203.31;;;-0.72;100.00
58622;BME280;44389;51.578;5.456;2024-01-15T01:17:09;100204.00;;;-0.75;100.00
58622;BME280;44389;51.578;5.456;2024-01-15T01:19:35;100196.19;;;-0.78;100.00
58622;BME280;44389;51.578;5.456;2024-01-15T01:22:00;100191.03;;;-0.79;100.00
58622;BME280;44389;51.578;5.456;2024-01-15T01:24:25;100183.34;;;-0.81;100.00
58622;BME280;44389;51.578;5.456;2024-01-15T01:26:50;100186.66;;;-0.82;100.00
58622;BME280;44389;51.578;5.456;2024-01-15T01:29:16;100189.19;;;-0.82;100.00
58622;BME280;44389;51.578;5.456;2024-01-15T01:31:44;100192.09;;;-0.89;100.00
58622;BME280;44389;51.578;5.456;2024-01-15T01:34:10;100188.69;;;-0.90;100.00
58622;BME280;44389;51.578;5.456;2024-01-15T01:36:35;100193.44;;;-0.94;100.00
58622;BME280;44389;51.578;5.456;2024-01-15T01:39:01;100192.66;;;-0.93;100.00
58622;BME280;44389;51.578;5.456;2024-01-15T01:41:26;100191.91;;;-0.92;100.00
58622;BME280;44389;51.578;5.456;2024-01-15T01:43:51;100190.81;;;-0.96;100.00
58622;BME280;44389;51.578;5.456;2024-01-15T01:46:17;100195.00;;;-0.96;100.00
58622;BME280;44389;51.578;5.456;2024-01-15T01:48:43;100200.06;;;-0.96;100.00
58622;BME280;44389;51.578;5.456;2024-01-15T01:51:09;100205.91;;;-0.97;100.00
58622;BME280;44389;51.578;5.456;2024-01-15T01:53:36;100203.19;;;-1.01;100.00
58622;BME280;44389;51.578;5.456;2024-01-15T01:56:03;100201.03;;;-0.94;100.00
58622;BME280;44389;51.578;5.456;2024-01-15T01:58:29;100195.88;;;-0.96;100.00
58622;BME280;44389;51.578;5.456;2024-01-15T02:00:55;100206.47;;;-1.02;100.00
58622;BME280;44389;51.578;5.456;2024-01-15T02:03:21;100198.13;;;-1.01;100.00
58622;BME280;44389;51.578;5.456;2024-01-15T02:05:48;100198.00;;;-1.02;100.00
58622;BME280;44389;51.578;5.456;2024-01-15T02:08:14;100196.38;;;-1.02;100.00
58622;BME280;44389;51.578;5.456;2024-01-15T02:10:39;100194.78;;;-1.00;100.00
58622;BME280;44389;51.578;5.456;2024-01-15T02:13:05;100184.22;;;-0.94;100.00
58622;BME280;44389;51.578;5.456;2024-01-15T02:15:30;100193.44;;;-0.94;100.00
58622;BME280;44389;51.578;5.456;2024-01-15T02:18:03;100189.94;;;-0.96;100.00
58622;BME280;44389;51.578;5.456;2024-01-15T02:20:29;100188.00;;;-1.01;100.00
58622;BME280;44389;51.578;5.456;2024-01-15T02:25:32;100186.25;;;-1.02;100.00
58622;BME280;44389;51.578;5.456;2024-01-15T02:27:57;100179.44;;;-1.03;100.00
58622;BME280;44389;51.578;5.456;2024-01-15T02:30:24;100184.50;;;-1.03;100.00
58622;BME280;44389;51.578;5.456;2024-01-15T02:32:50;100180.97;;;-1.05;100.00
58622;BME280;44389;51.578;5.456;2024-01-15T02:35:15;100178.34;;;-1.06;100.00
58622;BME280;44389;51.578;5.456;2024-01-15T02:37:41;100189.03;;;-1.10;100.00
58622;BME280;44389;51.578;5.456;2024-01-15T02:40:07;100179.50;;;-1.14;100.00
58622;BME280;44389;51.578;5.456;2024-01-15T02:42:32;100184.25;;;-1.19;100.00
58622;BME280;44389;51.578;5.456;2024-01-15T02:44:58;100180.38;;;-1.14;100.00
58622;BME280;44389;51.578;5.456;2024-01-15T02:47:23;100181.72;;;-1.19;100.00
58622;BME280;44389;51.578;5.456;2024-01-15T02:49:48;100181.72;;;-1.19;100.00
58622;BME280;44389;51.578;5.456;2024-01-15T02:52:13;100182.91;;;-1.14;100.00
58622;BME280;44389;51.578;5.456;2024-01-15T02:54:39;100176.88;;;-1.16;100.00
58622;BME280;44389;51.578;5.456;2024-01-15T02:57:04;100180.19;;;-1.17;100.00
58622;BME280;44389;51.578;5.456;2024-01-15T02:59:29;100178.63;;;-1.15;100.00
58622;BME280;44389;51.578;5.456;2024-01-15T03:01:54;100188.72;;;-1.15;100.00
58622;BME280;44389;51.578;5.456;2024-01-15T03:04:20;100180.47;;;-1.12;100.00
58622;BME280;44389;51.578;5.456;2024-01-15T03:06:45;100193.22;;;-1.11;100.00
58622;BME280;44389;51.578;5.456;2024-01-15T03:09:10;100185.44;;;-1.14;100.00
58622;BME280;44389;51.578;5.456;2024-01-15T03:11:39;100187.28;;;-1.11;100.00
58622;BME280;44389;51.578;5.456;2024-01-15T03:14:04;100189.72;;;-1.13;100.00
58622;BME280;44389;51.578;5.456;2024-01-15T03:16:29;100181.94;;;-1.16;100.00
58622;BME280;44389;51.578;5.456;2024-01-15T03:18:55;100188.06;;;-1.12;100.00
58622;BME280;44389;51.578;5.456;2024-01-15T03:21:20;100178.75;;;-1.13;100.00
58622;BME280;44389;51.578;5.456;2024-01-15T03:23:45;100178.63;;;-1.15;100.00
58622;BME280;44389;51.578;5.456;2024-01-15T03:26:11;100182.91;;;-1.14;100.00
58622;BME280;44389;51.578;5.456;2024-01-15T03:28:36;100183.88;;;-1.12;100.00
58622;BME280;44389;51.578;5.456;2024-01-15T03:31:02;100178.84;;;-1.12;100.00
58622;BME280;44389;51.578;5.456;2024-01-15T03:33:27;100178.84;;;-1.12;100.00
58622;BME280;44389;51.578;5.456;2024-01-15T03:35:52;100172.03;;;-1.13;100.00
58622;BME280;44389;51.578;5.456;2024-01-15T03:38:18;100172.19;;;-1.10;100.00
58622;BME280;44389;51.578;5.456;2024-01-15T03:40:43;100166.97;;;-1.13;100.00
58622;BME280;44389;51.578;5.456;2024-01-15T03:43:08;100171.25;;;-1.12;100.00
58622;BME280;44389;51.578;5.456;2024-01-15T03:45:34;100171.16;;;-1.13;100.00
58622;BME280;44389;51.578;5.456;2024-01-15T03:47:59;100177.94;;;-1.12;100.00
58622;BME280;44389;51.578;5.456;2024-01-15T03:50:24;100167.63;;;-1.16;100.00
58622;BME280;44389;51.578;5.456;2024-01-15T03:52:50;100173.56;;;-1.15;100.00
58622;BME280;44389;51.578;5.456;2024-01-15T03:55:15;100167.16;;;-1.10;100.00
58622;BME280;44389;51.578;5.456;2024-01-15T03:57:40;100159.69;;;-1.08;100.00
58622;BME280;44389;51.578;5.456;2024-01-15T04:00:07;100164.06;;;-1.06;100.00
58622;BME280;44389;51.578;5.456;2024-01-15T04:02:32;100159.19;;;-1.03;100.00
58622;BME280;44389;51.578;5.456;2024-01-15T04:04:57;100149.25;;;-1.00;100.00
58622;BME280;44389;51.578;5.456;2024-01-15T04:07:23;100145.28;;;-0.96;100.00
58622;BME280;44389;51.578;5.456;2024-01-15T04:09:48;100150.34;;;-0.96;100.00
58622;BME280;44389;51.578;5.456;2024-01-15T04:12:13;100136.06;;;-0.95;100.00
58622;BME280;44389;51.578;5.456;2024-01-15T04:14:39;100135.47;;;-0.91;100.00
58622;BME280;44389;51.578;5.456;2024-01-15T04:17:04;100127.28;;;-0.87;100.00
58622;BME280;44389;51.578;5.456;2024-01-15T04:19:29;100130.00;;;-0.84;100.00
58622;BME280;44389;51.578;5.456;2024-01-15T04:21:54;100133.72;;;-0.79;100.00
58622;BME280;44389;51.578;5.456;2024-01-15T04:24:20;100128.09;;;-0.75;100.00
58622;BME280;44389;51.578;5.456;2024-01-15T04:26:45;100139.16;;;-0.73;100.00
58622;BME280;44389;51.578;5.456;2024-01-15T04:29:11;100138.38;;;-0.72;100.00
58622;BME280;44389;51.578;5.456;2024-01-15T04:31:36;100139.56;;;-0.67;100.00
58622;BME280;44389;51.578;5.456;2024-01-15T04:34:01;100143.94;;;-0.64;100.00
58622;BME280;44389;51.578;5.456;2024-01-15T04:36:26;100138.19;;;-0.61;100.00
58622;BME280;44389;51.578;5.456;2024-01-15T04:38:52;100135.66;;;-0.61;100.00
58622;BME280;44389;51.578;5.456;2024-01-15T04:41:17;100124.75;;;-0.60;100.00
58622;BME280;44389;51.578;5.456;2024-01-15T04:43:42;100129.81;;;-0.60;100.00
58622;BME280;44389;51.578;5.456;2024-01-15T04:46:08;100111.13;;;-0.62;100.00
58622;BME280;44389;51.578;5.456;2024-01-15T04:48:33;100112.69;;;-0.64;100.00
58622;BME280;44389;51.578;5.456;2024-01-15T04:50:59;100109.19;;;-0.67;100.00
58622;BME280;44389;51.578;5.456;2024-01-15T04:53:24;100115.78;;;-0.69;100.00
58622;BME280;44389;51.578;5.456;2024-01-15T04:55:50;100113.16;;;-0.70;100.00
58622;BME280;44389;51.578;5.456;2024-01-15T04:58:15;100118.91;;;-0.73;100.00
58622;BME280;44389;51.578;5.456;2024-01-15T05:00:40;100124.75;;;-0.74;100.00
58622;BME280;44389;51.578;5.456;2024-01-15T05:03:06;100128.84;;;-0.76;100.00
58622;BME280;44389;51.578;5.456;2024-01-15T05:05:31;100123.59;;;-0.79;100.00
58622;BME280;44389;51.578;5.456;2024-01-15T05:07:56;100121.84;;;-0.80;100.00
58622;BME280;44389;51.578;5.456;2024-01-15T05:10:21;100114.28;;;-0.80;100.00
58622;BME280;44389;51.578;5.456;2024-01-15T05:12:47;100109.22;;;-0.80;100.00
58622;BME280;44389;51.578;5.456;2024-01-15T05:15:12;100107.44;;;-0.81;100.00
58622;BME280;44389;51.578;5.456;2024-01-15T05:17:37;100110.16;;;-0.78;100.00
58622;BME280;44389;51.578;5.456;2024-01-15T05:20:03;100109.47;;;-0.75;100.00
58622;BME280;44389;51.578;5.456;2024-01-15T05:22:29;100108.78;;;-0.73;100.00
58622;BME280;44389;51.578;5.456;2024-01-15T05:24:54;100102.09;;;-0.72;100.00
58622;BME280;44389;51.578;5.456;2024-01-15T05:27:20;100103.66;;;-0.74;100.00
58622;BME280;44389;51.578;5.456;2024-01-15T05:29:45;100100.34;;;-0.73;100.00
58622;BME280;44389;51.578;5.456;2024-01-15T05:32:10;100114.53;;;-0.75;100.00
58622;BME280;44389;51.578;5.456;2024-01-15T05:34:35;100106.84;;;-0.77;100.00
58622;BME280;44389;51.578;5.456;2024-01-15T05:37:01;100109.31;;;-0.78;100.00
58622;BME280;44389;51.578;5.456;2024-01-15T05:39:26;100105.50;;;-0.72;100.00
58622;BME280;44389;51.578;5.456;2024-01-15T05:41:51;100109.22;;;-0.80;100.00
58622;BME280;44389;51.578;5.456;2024-01-15T05:44:17;100104.91;;;-0.81;100.00
58622;BME280;44389;51.578;5.456;2024-01-15T05:46:42;100098.09;;;-0.82;100.00
58622;BME280;44389;51.578;5.456;2024-01-15T05:49:08;100101.22;;;-0.86;100.00
58622;BME280;44389;51.578;5.456;2024-01-15T05:51:33;100100.06;;;-0.91;100.00
58622;BME280;44389;51.578;5.456;2024-01-15T05:53:58;100100.53;;;-0.97;100.00
58622;BME280;44389;51.578;5.456;2024-01-15T05:56:23;100097.81;;;-1.00;100.00
58622;BME280;44389;51.578;5.456;2024-01-15T05:58:49;100097.50;;;-1.05;100.00
58622;BME280;44389;51.578;5.456;2024-01-15T06:01:15;100096.56;;;-1.07;100.00
58622;BME280;44389;51.578;5.456;2024-01-15T06:03:40;100092.09;;;-1.11;100.00
58622;BME280;44389;51.578;5.456;2024-01-15T06:06:05;100090.00;;;-1.17;100.00
58622;BME280;44389;51.578;5.456;2024-01-15T06:08:31;100094.00;;;-1.20;100.00
58622;BME280;44389;51.578;5.456;2024-01-15T06:10:56;100097.09;;;-1.24;100.00
58622;BME280;44389;51.578;5.456;2024-01-15T06:13:22;100084.47;;;-1.24;100.00
58622;BME280;44389;51.578;5.456;2024-01-15T06:15:47;100079.22;;;-1.27;100.00
58622;BME280;44389;51.578;5.456;2024-01-15T06:18:12;100079.22;;;-1.27;100.00
58622;BME280;44389;51.578;5.456;2024-01-15T06:20:39;100081.75;;;-1.27;100.00
58622;BME280;44389;51.578;5.456;2024-01-15T06:23:04;100081.75;;;-1.27;100.00
58622;BME280;44389;51.578;5.456;2024-01-15T06:25:29;100075.25;;;-1.24;100.00
58622;BME280;44389;51.578;5.456;2024-01-15T06:27:55;100075.53;;;-1.19;100.00
58622;BME280;44389;51.578;5.456;2024-01-15T06:30:20;100073.78;;;-1.20;100.00
58622;BME280;44389;51.578;5.456;2024-01-15T06:32:45;100075.53;;;-1.19;100.00
58622;BME280;44389;51.578;5.456;2024-01-15T06:35:11;100078.28;;;-1.16;100.00
58622;BME280;44389;51.578;5.456;2024-01-15T06:37:37;100079.22;;;-1.14;100.00
58622;BME280;44389;51.578;5.456;2024-01-15T06:40:02;100086.91;;;-1.12;100.00
58622;BME280;44389;51.578;5.456;2024-01-15T06:42:28;100072.72;;;-1.10;100.00
58622;BME280;44389;51.578;5.456;2024-01-15T06:44:53;100066.88;;;-1.09;100.00
58622;BME280;44389;51.578;5.456;2024-01-15T06:47:19;100068.53;;;-1.10;100.00
58622;BME280;44389;51.578;5.456;2024-01-15T06:49:44;100074.47;;;-1.09;100.00
58622;BME280;44389;51.578;5.456;2024-01-15T06:52:09;100077.09;;;-1.08;100.00
58622;BME280;44389;51.578;5.456;2024-01-15T06:54:35;100082.06;;;-1.09;100.00
58622;BME280;44389;51.578;5.456;2024-01-15T06:57:00;100074.56;;;-1.08;100.00
58622;BME280;44389;51.578;5.456;2024-01-15T06:59:25;100081.28;;;-1.08;100.00
58622;BME280;44389;51.578;5.456;2024-01-15T07:01:51;100077.88;;;-1.09;100.00
58622;BME280;44389;51.578;5.456;2024-01-15T07:04:16;100073.50;;;-1.11;100.00
58622;BME280;44389;51.578;5.456;2024-01-15T07:06:41;100072.63;;;-1.12;100.00
58622;BME280;44389;51.578;5.456;2024-01-15T07:09:07;100075.94;;;-1.13;100.00
58622;BME280;44389;51.578;5.456;2024-01-15T07:11:33;100080.81;;;-1.16;100.00
58622;BME280;44389;51.578;5.456;2024-01-15T07:13:58;100084.09;;;-1.17;100.00
58622;BME280;44389;51.578;5.456;2024-01-15T07:16:23;100083.88;;;-1.20;100.00
58622;BME280;44389;51.578;5.456;2024-01-15T07:18:49;100076.09;;;-1.23;100.00
58622;BME280;44389;51.578;5.456;2024-01-15T07:21:14;100067.44;;;-1.27;100.00
58622;BME280;44389;51.578;5.456;2024-01-15T07:23:39;100068.13;;;-1.29;100.00
58622;BME280;44389;51.578;5.456;2024-01-15T07:26:05;100071.34;;;-1.32;100.00
58622;BME280;44389;51.578;5.456;2024-01-15T07:28:31;100084.88;;;-1.31;100.00
58622;BME280;44389;51.578;5.456;2024-01-15T07:30:57;100084.88;;;-1.31;100.00
58622;BME280;44389;51.578;5.456;2024-01-15T07:33:22;100083.97;;;-1.32;100.00
58622;BME280;44389;51.578;5.456;2024-01-15T07:35:47;100085.72;;;-1.31;100.00
58622;BME280;44389;51.578;5.456;2024-01-15T07:38:13;100088.94;;;-1.34;100.00
58622;BME280;44389;51.578;5.456;2024-01-15T07:40:38;100089.13;;;-1.30;100.00
58622;BME280;44389;51.578;5.456;2024-01-15T07:43:03;100084.19;;;-1.29;100.00
58622;BME280;44389;51.578;5.456;2024-01-15T07:45:30;100075.13;;;-1.25;100.00
58622;BME280;44389;51.578;5.456;2024-01-15T07:47:55;100084.56;;;-1.23;100.00
58622;BME280;44389;51.578;5.456;2024-01-15T07:50:20;100090.50;;;-1.22;100.00
58622;BME280;44389;51.578;5.456;2024-01-15T07:52:45;100097.50;;;-1.18;100.00
58622;BME280;44389;51.578;5.456;2024-01-15T07:55:11;100086.72;;;-1.16;100.00
58622;BME280;44389;51.578;5.456;2024-01-15T07:57:36;100091.78;;;-1.16;100.00
58622;BME280;44389;51.578;5.456;2024-01-15T08:00:03;100099.44;;;-1.14;100.00
58622;BME280;44389;51.578;5.456;2024-01-15T08:02:30;100096.16;;;-1.13;100.00
58622;BME280;44389;51.578;5.456;2024-01-15T08:04:57;100107.13;;;-1.12;100.00
58622;BME280;44389;51.578;5.456;2024-01-15T08:07:24;100118.13;;;-1.12;100.00
58622;BME280;44389;51.578;5.456;2024-01-15T08:09:52;100115.88;;;-1.07;100.00
58622;BME280;44389;51.578;5.456;2024-01-15T08:12:19;100125.16;;;-1.08;100.00
58622;BME280;44389;51.578;5.456;2024-01-15T08:14:45;100129.53;;;-1.05;100.00
58622;BME280;44389;51.578;5.456;2024-01-15T08:17:10;100125.22;;;-1.06;100.00
58622;BME280;44389;51.578;5.456;2024-01-15T08:19:36;100133.59;;;-1.07;100.00
58622;BME280;44389;51.578;5.456;2024-01-15T08:22:01;100130.00;;;-1.11;100.00
58622;BME280;44389;51.578;5.456;2024-01-15T08:24:26;100124.47;;;-1.19;100.00
58622;BME280;44389;51.578;5.456;2024-01-15T08:26:52;100120.09;;;-1.21;100.00
58622;BME280;44389;51.578;5.456;2024-01-15T08:29:17;100119.09;;;-1.23;100.00
58622;BME280;44389;51.578;5.456;2024-01-15T08:31:44;100119.97;;;-1.23;100.00
58622;BME280;44389;51.578;5.456;2024-01-15T08:34:09;100115.78;;;-1.22;100.00
58622;BME280;44389;51.578;5.456;2024-01-15T08:36:34;100124.16;;;-1.23;100.00
58622;BME280;44389;51.578;5.456;2024-01-15T08:39:01;100125.00;;;-1.23;100.00
58622;BME280;44389;51.578;5.456;2024-01-15T08:41:26;100117.75;;;-1.18;100.00
58622;BME280;44389;51.578;5.456;2024-01-15T08:43:52;100123.78;;;-1.16;100.00
58622;BME280;44389;51.578;5.456;2024-01-15T08:46:18;100116.28;;;-1.14;100.00
58622;BME280;44389;51.578;5.456;2024-01-15T08:48:43;100113.00;;;-1.13;100.00
58622;BME280;44389;51.578;5.456;2024-01-15T08:51:08;100123.38;;;-1.09;100.00
58622;BME280;44389;51.578;5.456;2024-01-15T08:53:34;100119.09;;;-1.10;100.00
58622;BME280;44389;51.578;5.456;2024-01-15T08:55:59;100113.34;;;-1.07;100.00
58622;BME280;44389;51.578;5.456;2024-01-15T08:58:24;100121.25;;;-1.03;100.00
58622;BME280;44389;51.578;5.456;2024-01-15T09:00:50;100112.00;;;-1.02;100.00
58622;BME280;44389;51.578;5.456;2024-01-15T09:03:16;100106.16;;;-1.01;100.00
58622;BME280;44389;51.578;5.456;2024-01-15T09:05:41;100107.94;;;-1.00;100.00
58622;BME280;44389;51.578;5.456;2024-01-15T09:08:07;100101.19;;;-1.00;100.00
58622;BME280;44389;51.578;5.456;2024-01-15T09:10:33;100109.78;;;-0.97;100.00
58622;BME280;44389;51.578;5.456;2024-01-15T09:12:58;100115.81;;;-0.95;100.00
58622;BME280;44389;51.578;5.456;2024-01-15T09:15:23;100113.38;;;-0.94;100.00
58622;BME280;44389;51.578;5.456;2024-01-15T09:17:49;100122.59;;;-0.94;100.00
58622;BME280;44389;51.578;5.456;2024-01-15T09:20:15;100123.59;;;-0.92;100.00
58622;BME280;44389;51.578;5.456;2024-01-15T09:22:40;100111.81;;;-0.92;100.00
58622;BME280;44389;51.578;5.456;2024-01-15T09:25:07;100113.56;;;-0.91;100.00
58622;BME280;44389;51.578;5.456;2024-01-15T09:27:33;100115.25;;;-0.91;100.00
58622;BME280;44389;51.578;5.456;2024-01-15T09:29:59;100113.56;;;-0.91;100.00
58622;BME280;44389;51.578;5.456;2024-01-15T09:32:24;100111.13;;;-0.89;100.00
58622;BME280;44389;51.578;5.456;2024-01-15T09:34:50;100108.72;;;-0.88;100.00
58622;BME280;44389;51.578;5.456;2024-01-15T09:37:15;100102.00;;;-0.87;100.00
58622;BME280;44389;51.578;5.456;2024-01-15T09:39:41;100120.56;;;-0.87;100.00
58622;BME280;44389;51.578;5.456;2024-01-15T09:42:06;100122.31;;;-0.86;100.00
58622;BME280;44389;51.578;5.456;2024-01-15T09:44:32;100124.00;;;-0.86;100.00
58622;BME280;44389;51.578;5.456;2024-01-15T09:46:58;100125.94;;;-0.82;100.00
58622;BME280;44389;51.578;5.456;2024-01-15T09:49:24;100142.28;;;-0.77;100.00
58622;BME280;44389;51.578;5.456;2024-01-15T09:51:49;100129.31;;;-0.81;100.00
58622;BME280;44389;51.578;5.456;2024-01-15T09:54:15;100138.75;;;-0.79;100.00
58622;BME280;44389;51.578;5.456;2024-01-15T09:56:48;100137.91;;;-0.79;100.00
58622;BME280;44389;51.578;5.456;2024-01-15T09:59:16;100143.66;;;-0.82;100.00
58622;BME280;44389;51.578;5.456;2024-01-15T10:01:44;100140.13;;;-0.84;100.00
58622;BME280;44389;51.578;5.456;2024-01-15T10:04:13;100140.13;;;-0.84;100.00
58622;BME280;44389;51.578;5.456;2024-01-15T10:06:39;100137.22;;;-0.77;100.00
58622;BME280;44389;51.578;5.456;2024-01-15T10:09:07;100145.38;;;-0.68;100.00
58622;BME280;44389;51.578;5.456;2024-01-15T10:11:33;100135.47;;;-0.64;100.00
58622;BME280;44389;51.578;5.456;2024-01-15T10:13:58;100134.66;;;-0.63;100.00
58622;BME280;44389;51.578;5.456;2024-01-15T10:16:23;100136.66;;;-0.59;100.00
58622;BME280;44389;51.578;5.456;2024-01-15T10:18:49;100138.75;;;-0.52;100.00
58622;BME280;44389;51.578;5.456;2024-01-15T10:21:14;100137.97;;;-0.38;100.00
58622;BME280;44389;51.578;5.456;2024-01-15T10:23:41;100133.66;;;-0.25;100.00
58622;BME280;44389;51.578;5.456;2024-01-15T10:26:06;100136.16;;;-0.12;100.00
58622;BME280;44389;51.578;5.456;2024-01-15T10:28:31;100142.56;;;-0.04;100.00
58622;BME280;44389;51.578;5.456;2024-01-15T10:30:58;100145.28;;;-0.01;100.00
58622;BME280;44389;51.578;5.456;2024-01-15T10:33:24;100146.94;;;-0.01;100.00
58622;BME280;44389;51.578;5.456;2024-01-15T10:35:56;100143.91;;;0.05;100.00
58622;BME280;44389;51.578;5.456;2024-01-15T10:38:22;100139.81;;;0.07;100.00
58622;BME280;44389;51.578;5.456;2024-01-15T10:40:51;100137.69;;;-0.01;100.00
58622;BME280;44389;51.578;5.456;2024-01-15T10:43:17;100138.44;;;-0.02;100.00
58622;BME280;44389;51.578;5.456;2024-01-15T10:45:44;100141.41;;;-0.09;100.00
58622;BME280;44389;51.578;5.456;2024-01-15T10:48:10;100142.78;;;-0.14;100.00
58622;BME280;44389;51.578;5.456;2024-01-15T10:50:36;100125.47;;;-0.21;100.00
58622;BME280;44389;51.578;5.456;2024-01-15T10:53:01;100136.09;;;-0.27;100.00
58622;BME280;44389;51.578;5.456;2024-01-15T10:55:28;100133.84;;;-0.22;100.00
58622;BME280;44389;51.578;5.456;2024-01-15T10:57:54;100138.50;;;-0.15;100.00
58622;BME280;44389;51.578;5.456;2024-01-15T11:00:21;100138.28;;;-0.05;100.00
58622;BME280;44389;51.578;5.456;2024-01-15T11:02:47;100137.38;;;0.08;100.00
58622;BME280;44389;51.578;5.456;2024-01-15T11:05:12;100130.47;;;0.06;100.00
58622;BME280;44389;51.578;5.456;2024-01-15T11:07:39;100133.81;;;0.20;100.00
58622;BME280;44389;51.578;5.456;2024-01-15T11:10:06;100121.22;;;0.21;100.00
58622;BME280;44389;51.578;5.456;2024-01-15T11:12:33;100125.78;;;0.27;100.00
58622;BME280;44389;51.578;5.456;2024-01-15T11:15:03;100134.38;;;0.44;100.00
58622;BME280;44389;51.578;5.456;2024-01-15T11:17:59;100133.38;;;0.70;100.00
58622;BME280;44389;51.578;5.456;2024-01-15T11:20:30;100132.63;;;1.33;100.00
58622;BME280;44389;51.578;5.456;2024-01-15T11:22:57;100130.63;;;1.58;100.00
58622;BME280;44389;51.578;5.456;2024-01-15T11:25:34;100124.50;;;1.55;100.00
58622;BME280;44389;51.578;5.456;2024-01-15T11:28:00;100122.09;;;1.26;100.00
58622;BME280;44389;51.578;5.456;2024-01-15T11:30:25;100120.59;;;0.98;100.00
58622;BME280;44389;51.578;5.456;2024-01-15T11:32:51;100126.91;;;0.75;100.00
58622;BME280;44389;51.578;5.456;2024-01-15T11:35:17;100132.72;;;0.59;100.00
58622;BME280;44389;51.578;5.456;2024-01-15T11:40:36;100141.34;;;0.33;100.00
58622;BME280;44389;51.578;5.456;2024-01-15T11:43:03;100138.19;;;0.22;100.00
58622;BME280;44389;51.578;5.456;2024-01-15T11:45:30;100136.84;;;0.14;100.00
58622;BME280;44389;51.578;5.456;2024-01-15T11:48:14;100141.66;;;0.09;100.00
58622;BME280;44389;51.578;5.456;2024-01-15T11:50:42;100140.91;;;0.25;100.00
58622;BME280;44389;51.578;5.456;2024-01-15T11:53:40;100152.34;;;0.33;100.00
58622;BME280;44389;51.578;5.456;2024-01-15T11:56:14;100150.25;;;0.26;100.00
58622;BME280;44389;51.578;5.456;2024-01-15T11:58:41;100156.72;;;0.36;100.00
58622;BME280;44389;51.578;5.456;2024-01-15T12:01:07;100159.28;;;0.36;100.00
58622;BME280;44389;51.578;5.456;2024-01-15T12:03:32;100185.50;;;0.37;100.00
58622;BME280;44389;51.578;5.456;2024-01-15T12:05:59;100180.38;;;0.22;100.00
58622;BME280;44389;51.578;5.456;2024-01-15T12:08:25;100173.91;;;-0.02;100.00
58622;BME280;44389;51.578;5.456;2024-01-15T12:10:52;100171.94;;;-0.21;100.00
58622;BME280;44389;51.578;5.456;2024-01-15T12:13:17;100175.47;;;-0.32;100.00
58622;BME280;44389;51.578;5.456;2024-01-15T12:15:44;100176.34;;;-0.45;100.00
58622;BME280;44389;51.578;5.456;2024-01-15T12:18:11;100185.91;;;-0.54;100.00
58622;BME280;44389;51.578;5.456;2024-01-15T12:20:37;100185.28;;;-0.63;100.00
58622;BME280;44389;51.578;5.456;2024-01-15T12:23:03;100192.31;;;-0.73;100.00
58622;BME280;44389;51.578;5.456;2024-01-15T12:25:30;100190.16;;;-0.80;100.00
58622;BME280;44389;51.578;5.456;2024-01-15T12:27:56;100189.88;;;-0.85;100.00
58622;BME280;44389;51.578;5.456;2024-01-15T12:30:22;100189.78;;;-0.86;100.00
58622;BME280;44389;51.578;5.456;2024-01-15T12:32:47;100194.16;;;-0.84;100.00
58622;BME280;44389;51.578;5.456;2024-01-15T12:35:13;100194.06;;;-0.85;100.00
58622;BME280;44389;51.578;5.456;2024-01-15T12:37:42;100199.13;;;-0.85;100.00
58622;BME280;44389;51.578;5.456;2024-01-15T12:40:09;100207.25;;;-0.89;100.00